Pagrindinis puslapis
METAR-TAF:

METAR-TAF

Oro uostai :

Eskišechiras, Turkija

platuma: 39-47N, ilguma: 030-34E, Aukštis: 785 m

Dabartinis oras

Ataskaita buvo paskelbta 15 valandos ir 38 minutes, ne 19:45 UTC
Vėjas 2 kt nuo kintamojo kryptimis
Temperatūra 10°C
Drėgmė 100%
Slėgis 1013 hPa
Matomumas 10 km arba daugiau
Išsisklaidę debesys ne aukštis 3500 ft
Su prošvaistėmis ne aukštis 10000 ft

METAR: LTBI 271945Z VRB02KT 9999 SCT035 BKN100 10/10 Q1013 RESHRA NOSIG RMK RWY08 VRB03KT

Laikas: 14:23 (11:23 UTC)

Prognozė

Ataskaita buvo paskelbta 3 valandos ir 43 minutes, ne 07:40 UTC
Prognozė galioja nuo 28 metu 09 UTC su 28 metu 18 UTC
Vėjas 12 kt iš Pietvakarių
Matomumas 10 km arba daugiau
Išsisklaidę debesys ne aukštis 4000 ft
Su prošvaistėmis ne aukštis 10000 ft
Laikinai
nuo 28 metu 10 UTC su 28 metu 14 UTC
Vėjas 15 kt iš Pietvakarių su gūsio iki 25 kt

TAF: LTBI 280740Z 2809/2818 22012KT 9999 SCT040 BKN100 TEMPO 2810/2814 23015G25KT

Orai ataskaitas ir orų prognozės (METAR, TAF).

turimą stotys yra geltonos ir raudonos taškus žemėlapyje.

Perkelti pele per norėdami pamatyti stoties vardą.

Tada spustelėkite, norėdami matyti oro stebėjimo ir prognozės.

Norėdami pakeisti žemėlapį: spustelėkite ant žalios mygtukų su juodo kryžiaus žemyn,; žalią mygtuką su brūkšneliu, jei norite nutolinti; arba žalių rodyklių gretimoms žemėlapius.


METAR-TAF: